Sultan Azlan Shah Airport
WMKI : now visible

Airfield :











YOU CAN JOIN US ON...

 
LOGIN :

Register | Disclaimer

   EN    FR    IT 

 









Legend :    VFR   Marginal VFR   IFR   Intensive IFR   Very Intensive IFR
Visi :
Ceiling :
>= 8 km
>= 3000ft
5 to 8 km
1000 to 3000 ft
1500m to 5 km
500 to 1000 ft
800 to 1500m
200 to 500 ft
< 800m
< 200 ft
Symbols :   Thunderstorms  Fog  Heavy snow  Heavy precipitations  Wind > 20 kt






- Airport Elevation : 130 ft
- IATA code : IPH


WMKI - Sultan Azlan Shah

CURRENT METAR :
  • 201800Z VRB02KT 8000 FEW007 BKN280 26/25 Q1009

EXPIRED METARs :
  • 201700Z 00000KT 8000 FEW008 BKN280 26/25 Q1009
  • 201600Z VRB02KT 8000 FEW008 BKN280 26/25 Q1010

TAF TAF WMKI
Valid from the 20 at 18:00 until the 21 at 18:00 UTC


201700Z 2018/2118 04005KT 9000 FEW020
TEMPO 2108/2112 25010KT 5000 TSRA FEW017CB



MET'MAP, your aeronautical weather chart ! - Copyright ORBIFLY December 2007 - Disclaimer

ORBIFLY MET'MAP TEAM :

Programming & Development : Alexandra Zaïnal
Concept & Development : Baudouin d'Aumeries
Co-Development & Prog : Marc-Olivier Méhu
Technical & hardware support : Manuel Goepfert

Contact : metmap@orbifly.com




SOURCES & CREDITS :

   NOAA       Earth
Advisory